sensor_id;sensor_type;location;lat;lon;timestamp;P1;durP1;ratioP1;P2;durP2;ratioP2
21601;SDS011;10963;50.934;4.668;2024-03-17T00:00:37;10.13;;;5.20;;
21601;SDS011;10963;50.934;4.668;2024-03-17T00:03:05;13.00;;;5.80;;
21601;SDS011;10963;50.934;4.668;2024-03-17T00:05:33;10.23;;;5.70;;
21601;SDS011;10963;50.934;4.668;2024-03-17T00:08:03;7.60;;;5.60;;
21601;SDS011;10963;50.934;4.668;2024-03-17T00:10:35;7.97;;;5.87;;
21601;SDS011;10963;50.934;4.668;2024-03-17T00:13:00;7.93;;;5.63;;
21601;SDS011;10963;50.934;4.668;2024-03-17T00:15:26;8.60;;;5.87;;
21601;SDS011;10963;50.934;4.668;2024-03-17T00:17:54;9.77;;;5.67;;
21601;SDS011;10963;50.934;4.668;2024-03-17T00:20:22;12.70;;;6.87;;
21601;SDS011;10963;50.934;4.668;2024-03-17T00:22:50;11.63;;;6.70;;
21601;SDS011;10963;50.934;4.668;2024-03-17T00:25:18;8.30;;;6.27;;
21601;SDS011;10963;50.934;4.668;2024-03-17T00:27:43;12.87;;;6.07;;
21601;SDS011;10963;50.934;4.668;2024-03-17T00:30:10;8.13;;;5.97;;
21601;SDS011;10963;50.934;4.668;2024-03-17T00:32:41;9.90;;;6.27;;
21601;SDS011;10963;50.934;4.668;2024-03-17T00:35:07;9.90;;;5.87;;
21601;SDS011;10963;50.934;4.668;2024-03-17T00:37:35;10.30;;;6.83;;
21601;SDS011;10963;50.934;4.668;2024-03-17T00:40:03;10.50;;;6.93;;
21601;SDS011;10963;50.934;4.668;2024-03-17T00:42:32;11.03;;;6.87;;
21601;SDS011;10963;50.934;4.668;2024-03-17T00:45:00;12.63;;;6.20;;
21601;SDS011;10963;50.934;4.668;2024-03-17T00:47:26;9.10;;;5.97;;
21601;SDS011;10963;50.934;4.668;2024-03-17T00:49:52;9.73;;;6.30;;
21601;SDS011;10963;50.934;4.668;2024-03-17T00:52:18;12.17;;;6.60;;
21601;SDS011;10963;50.934;4.668;2024-03-17T00:54:46;10.07;;;6.47;;
21601;SDS011;10963;50.934;4.668;2024-03-17T00:57:15;11.13;;;6.17;;
21601;SDS011;10963;50.934;4.668;2024-03-17T00:59:43;12.70;;;7.03;;
21601;SDS011;10963;50.934;4.668;2024-03-17T01:02:10;17.00;;;7.67;;
21601;SDS011;10963;50.934;4.668;2024-03-17T01:04:39;12.70;;;7.53;;
21601;SDS011;10963;50.934;4.668;2024-03-17T01:07:05;13.83;;;8.07;;
21601;SDS011;10963;50.934;4.668;2024-03-17T01:09:31;14.03;;;7.60;;
21601;SDS011;10963;50.934;4.668;2024-03-17T01:11:57;15.77;;;8.60;;
21601;SDS011;10963;50.934;4.668;2024-03-17T01:14:23;15.17;;;9.47;;
21601;SDS011;10963;50.934;4.668;2024-03-17T01:16:51;15.43;;;8.97;;
21601;SDS011;10963;50.934;4.668;2024-03-17T01:19:18;15.10;;;9.83;;
21601;SDS011;10963;50.934;4.668;2024-03-17T01:21:45;16.20;;;8.50;;
21601;SDS011;10963;50.934;4.668;2024-03-17T01:24:11;18.57;;;10.60;;
21601;SDS011;10963;50.934;4.668;2024-03-17T01:26:39;16.03;;;9.83;;
21601;SDS011;10963;50.934;4.668;2024-03-17T01:29:05;14.60;;;9.13;;
21601;SDS011;10963;50.934;4.668;2024-03-17T01:31:33;16.17;;;10.43;;
21601;SDS011;10963;50.934;4.668;2024-03-17T01:33:59;17.37;;;9.60;;
21601;SDS011;10963;50.934;4.668;2024-03-17T01:36:27;16.10;;;9.77;;
21601;SDS011;10963;50.934;4.668;2024-03-17T01:38:55;19.63;;;9.83;;
21601;SDS011;10963;50.934;4.668;2024-03-17T01:41:21;17.33;;;9.80;;
21601;SDS011;10963;50.934;4.668;2024-03-17T01:43:46;18.17;;;10.27;;
21601;SDS011;10963;50.934;4.668;2024-03-17T01:46:13;15.83;;;10.23;;
21601;SDS011;10963;50.934;4.668;2024-03-17T01:48:40;18.33;;;10.00;;
21601;SDS011;10963;50.934;4.668;2024-03-17T01:51:09;15.50;;;9.63;;
21601;SDS011;10963;50.934;4.668;2024-03-17T01:53:40;17.53;;;9.27;;
21601;SDS011;10963;50.934;4.668;2024-03-17T01:56:07;14.67;;;9.20;;
21601;SDS011;10963;50.934;4.668;2024-03-17T01:58:38;15.87;;;9.93;;
21601;SDS011;10963;50.934;4.668;2024-03-17T02:01:07;14.37;;;9.30;;
21601;SDS011;10963;50.934;4.668;2024-03-17T02:03:33;19.10;;;9.80;;
21601;SDS011;10963;50.934;4.668;2024-03-17T02:05:59;13.80;;;8.60;;
21601;SDS011;10963;50.934;4.668;2024-03-17T02:08:25;15.00;;;8.83;;
21601;SDS011;10963;50.934;4.668;2024-03-17T02:10:52;15.07;;;8.67;;
21601;SDS011;10963;50.934;4.668;2024-03-17T02:13:21;16.43;;;9.73;;
21601;SDS011;10963;50.934;4.668;2024-03-17T02:15:49;15.10;;;9.17;;
21601;SDS011;10963;50.934;4.668;2024-03-17T02:18:17;16.80;;;9.63;;
21601;SDS011;10963;50.934;4.668;2024-03-17T02:20:43;18.33;;;9.30;;
21601;SDS011;10963;50.934;4.668;2024-03-17T02:23:25;14.83;;;9.07;;
21601;SDS011;10963;50.934;4.668;2024-03-17T02:25:54;18.57;;;9.77;;
21601;SDS011;10963;50.934;4.668;2024-03-17T02:28:19;15.53;;;8.90;;
21601;SDS011;10963;50.934;4.668;2024-03-17T02:30:45;17.87;;;10.23;;
21601;SDS011;10963;50.934;4.668;2024-03-17T02:33:16;15.30;;;9.03;;
21601;SDS011;10963;50.934;4.668;2024-03-17T02:35:41;17.33;;;9.40;;
21601;SDS011;10963;50.934;4.668;2024-03-17T02:38:09;15.80;;;9.47;;
21601;SDS011;10963;50.934;4.668;2024-03-17T02:41:00;16.33;;;9.93;;
21601;SDS011;10963;50.934;4.668;2024-03-17T02:43:31;14.53;;;9.03;;
21601;SDS011;10963;50.934;4.668;2024-03-17T02:45:57;15.93;;;10.20;;
21601;SDS011;10963;50.934;4.668;2024-03-17T02:48:23;16.23;;;9.63;;
21601;SDS011;10963;50.934;4.668;2024-03-17T02:50:51;15.13;;;10.73;;
21601;SDS011;10963;50.934;4.668;2024-03-17T02:53:18;16.90;;;10.80;;
21601;SDS011;10963;50.934;4.668;2024-03-17T02:55:44;16.37;;;9.47;;
21601;SDS011;10963;50.934;4.668;2024-03-17T02:58:10;15.87;;;9.53;;
21601;SDS011;10963;50.934;4.668;2024-03-17T03:00:36;20.40;;;10.37;;
21601;SDS011;10963;50.934;4.668;2024-03-17T03:03:04;16.50;;;9.30;;
21601;SDS011;10963;50.934;4.668;2024-03-17T03:05:32;14.97;;;9.30;;
21601;SDS011;10963;50.934;4.668;2024-03-17T03:07:58;16.63;;;8.90;;
21601;SDS011;10963;50.934;4.668;2024-03-17T03:10:26;18.93;;;10.13;;
21601;SDS011;10963;50.934;4.668;2024-03-17T03:12:54;15.93;;;8.20;;
21601;SDS011;10963;50.934;4.668;2024-03-17T03:15:19;15.13;;;8.77;;
21601;SDS011;10963;50.934;4.668;2024-03-17T03:17:48;17.00;;;9.33;;
21601;SDS011;10963;50.934;4.668;2024-03-17T03:20:13;12.13;;;8.27;;
21601;SDS011;10963;50.934;4.668;2024-03-17T03:22:45;12.40;;;8.10;;
21601;SDS011;10963;50.934;4.668;2024-03-17T03:25:11;16.87;;;8.50;;
21601;SDS011;10963;50.934;4.668;2024-03-17T03:27:37;16.33;;;8.67;;
21601;SDS011;10963;50.934;4.668;2024-03-17T03:30:05;14.97;;;8.90;;
21601;SDS011;10963;50.934;4.668;2024-03-17T03:32:36;13.03;;;8.57;;
21601;SDS011;10963;50.934;4.668;2024-03-17T03:35:04;13.03;;;8.20;;
21601;SDS011;10963;50.934;4.668;2024-03-17T03:37:30;15.07;;;8.87;;
21601;SDS011;10963;50.934;4.668;2024-03-17T03:40:01;13.70;;;8.67;;
21601;SDS011;10963;50.934;4.668;2024-03-17T03:42:33;14.03;;;8.10;;
21601;SDS011;10963;50.934;4.668;2024-03-17T03:45:00;14.93;;;8.47;;
21601;SDS011;10963;50.934;4.668;2024-03-17T03:47:25;11.50;;;7.93;;
21601;SDS011;10963;50.934;4.668;2024-03-17T03:49:53;14.87;;;8.60;;
21601;SDS011;10963;50.934;4.668;2024-03-17T03:52:21;15.40;;;7.93;;
21601;SDS011;10963;50.934;4.668;2024-03-17T03:54:47;18.13;;;8.77;;
21601;SDS011;10963;50.934;4.668;2024-03-17T03:57:17;14.13;;;8.83;;
21601;SDS011;10963;50.934;4.668;2024-03-17T03:59:43;13.50;;;8.77;;
21601;SDS011;10963;50.934;4.668;2024-03-17T04:02:09;13.10;;;7.60;;
21601;SDS011;10963;50.934;4.668;2024-03-17T04:04:37;11.23;;;8.13;;
21601;SDS011;10963;50.934;4.668;2024-03-17T04:07:05;12.30;;;8.10;;
21601;SDS011;10963;50.934;4.668;2024-03-17T04:09:33;14.40;;;9.17;;
21601;SDS011;10963;50.934;4.668;2024-03-17T04:11:59;13.10;;;8.23;;
21601;SDS011;10963;50.934;4.668;2024-03-17T04:14:27;9.50;;;7.37;;
21601;SDS011;10963;50.934;4.668;2024-03-17T04:16:56;13.83;;;7.77;;
21601;SDS011;10963;50.934;4.668;2024-03-17T04:19:23;13.13;;;8.73;;
21601;SDS011;10963;50.934;4.668;2024-03-17T04:21:48;14.07;;;8.33;;
21601;SDS011;10963;50.934;4.668;2024-03-17T04:24:16;14.07;;;8.93;;
21601;SDS011;10963;50.934;4.668;2024-03-17T04:26:43;15.30;;;8.63;;
21601;SDS011;10963;50.934;4.668;2024-03-17T04:29:09;16.33;;;8.07;;
21601;SDS011;10963;50.934;4.668;2024-03-17T04:31:34;15.67;;;9.43;;
21601;SDS011;10963;50.934;4.668;2024-03-17T04:34:00;13.87;;;8.60;;
21601;SDS011;10963;50.934;4.668;2024-03-17T04:36:28;17.13;;;9.40;;
21601;SDS011;10963;50.934;4.668;2024-03-17T04:38:54;11.57;;;7.23;;
21601;SDS011;10963;50.934;4.668;2024-03-17T04:41:22;11.87;;;8.33;;
21601;SDS011;10963;50.934;4.668;2024-03-17T04:43:50;14.83;;;8.20;;
21601;SDS011;10963;50.934;4.668;2024-03-17T04:46:15;14.17;;;8.60;;
21601;SDS011;10963;50.934;4.668;2024-03-17T04:48:44;15.27;;;8.53;;
21601;SDS011;10963;50.934;4.668;2024-03-17T04:51:14;13.60;;;8.73;;
21601;SDS011;10963;50.934;4.668;2024-03-17T04:53:40;14.50;;;8.20;;
21601;SDS011;10963;50.934;4.668;2024-03-17T04:56:08;15.80;;;8.77;;
21601;SDS011;10963;50.934;4.668;2024-03-17T04:58:34;15.07;;;9.23;;
21601;SDS011;10963;50.934;4.668;2024-03-17T05:01:03;14.83;;;9.47;;
21601;SDS011;10963;50.934;4.668;2024-03-17T05:03:31;18.40;;;9.23;;
21601;SDS011;10963;50.934;4.668;2024-03-17T05:05:58;14.30;;;8.87;;
21601;SDS011;10963;50.934;4.668;2024-03-17T05:08:25;14.83;;;8.23;;
21601;SDS011;10963;50.934;4.668;2024-03-17T05:13:29;14.17;;;8.63;;
21601;SDS011;10963;50.934;4.668;2024-03-17T05:15:59;15.50;;;8.50;;
21601;SDS011;10963;50.934;4.668;2024-03-17T05:18:26;16.20;;;9.10;;
21601;SDS011;10963;50.934;4.668;2024-03-17T05:21:05;17.03;;;8.20;;
21601;SDS011;10963;50.934;4.668;2024-03-17T05:23:33;18.43;;;8.67;;
21601;SDS011;10963;50.934;4.668;2024-03-17T05:26:02;15.53;;;8.20;;
21601;SDS011;10963;50.934;4.668;2024-03-17T05:28:29;14.07;;;8.30;;
21601;SDS011;10963;50.934;4.668;2024-03-17T05:30:56;13.33;;;8.60;;
21601;SDS011;10963;50.934;4.668;2024-03-17T05:33:25;14.13;;;7.80;;
21601;SDS011;10963;50.934;4.668;2024-03-17T05:35:55;15.50;;;7.90;;
21601;SDS011;10963;50.934;4.668;2024-03-17T05:38:27;12.37;;;7.70;;
21601;SDS011;10963;50.934;4.668;2024-03-17T05:40:58;16.50;;;8.70;;
21601;SDS011;10963;50.934;4.668;2024-03-17T05:43:29;13.17;;;8.50;;
21601;SDS011;10963;50.934;4.668;2024-03-17T05:45:58;13.07;;;7.43;;
21601;SDS011;10963;50.934;4.668;2024-03-17T05:48:26;13.43;;;7.37;;
21601;SDS011;10963;50.934;4.668;2024-03-17T05:50:52;13.10;;;7.83;;
21601;SDS011;10963;50.934;4.668;2024-03-17T05:53:18;14.33;;;8.30;;
21601;SDS011;10963;50.934;4.668;2024-03-17T05:55:45;11.23;;;7.27;;
21601;SDS011;10963;50.934;4.668;2024-03-17T05:58:11;14.23;;;7.93;;
21601;SDS011;10963;50.934;4.668;2024-03-17T06:00:37;11.70;;;7.60;;
21601;SDS011;10963;50.934;4.668;2024-03-17T06:03:06;13.40;;;7.40;;
21601;SDS011;10963;50.934;4.668;2024-03-17T06:05:32;12.83;;;7.30;;
21601;SDS011;10963;50.934;4.668;2024-03-17T06:08:01;15.67;;;7.90;;
21601;SDS011;10963;50.934;4.668;2024-03-17T06:10:31;13.00;;;7.63;;
21601;SDS011;10963;50.934;4.668;2024-03-17T06:12:58;12.53;;;7.43;;
21601;SDS011;10963;50.934;4.668;2024-03-17T06:15:24;11.47;;;6.80;;
21601;SDS011;10963;50.934;4.668;2024-03-17T06:17:53;35.17;;;22.83;;
21601;SDS011;10963;50.934;4.668;2024-03-17T06:20:20;19.47;;;12.33;;
21601;SDS011;10963;50.934;4.668;2024-03-17T06:22:46;14.73;;;9.53;;
21601;SDS011;10963;50.934;4.668;2024-03-17T06:25:14;18.30;;;8.80;;
21601;SDS011;10963;50.934;4.668;2024-03-17T06:27:41;16.07;;;11.43;;
21601;SDS011;10963;50.934;4.668;2024-03-17T06:30:11;28.07;;;21.03;;
21601;SDS011;10963;50.934;4.668;2024-03-17T06:32:39;13.13;;;9.80;;
21601;SDS011;10963;50.934;4.668;2024-03-17T06:35:06;13.73;;;8.33;;
21601;SDS011;10963;50.934;4.668;2024-03-17T06:37:35;18.37;;;12.47;;
21601;SDS011;10963;50.934;4.668;2024-03-17T06:40:01;17.23;;;13.57;;
21601;SDS011;10963;50.934;4.668;2024-03-17T06:42:28;15.57;;;9.70;;
21601;SDS011;10963;50.934;4.668;2024-03-17T06:44:57;13.20;;;10.17;;
21601;SDS011;10963;50.934;4.668;2024-03-17T06:47:25;17.93;;;8.87;;
21601;SDS011;10963;50.934;4.668;2024-03-17T06:49:50;15.07;;;8.10;;
21601;SDS011;10963;50.934;4.668;2024-03-17T06:52:16;13.60;;;7.67;;
21601;SDS011;10963;50.934;4.668;2024-03-17T06:54:42;10.07;;;6.40;;
21601;SDS011;10963;50.934;4.668;2024-03-17T06:57:08;12.20;;;7.70;;
21601;SDS011;10963;50.934;4.668;2024-03-17T06:59:36;12.47;;;7.63;;
21601;SDS011;10963;50.934;4.668;2024-03-17T07:02:04;12.57;;;6.60;;
21601;SDS011;10963;50.934;4.668;2024-03-17T07:04:30;14.07;;;7.10;;
21601;SDS011;10963;50.934;4.668;2024-03-17T07:06:56;13.73;;;7.73;;
21601;SDS011;10963;50.934;4.668;2024-03-17T07:09:21;12.80;;;7.47;;
21601;SDS011;10963;50.934;4.668;2024-03-17T07:11:51;14.10;;;7.53;;
21601;SDS011;10963;50.934;4.668;2024-03-17T07:14:18;15.70;;;8.47;;
21601;SDS011;10963;50.934;4.668;2024-03-17T07:16:46;12.20;;;7.43;;
21601;SDS011;10963;50.934;4.668;2024-03-17T07:19:14;16.80;;;8.00;;
21601;SDS011;10963;50.934;4.668;2024-03-17T07:21:40;26.93;;;18.60;;
21601;SDS011;10963;50.934;4.668;2024-03-17T07:24:10;12.27;;;8.20;;
21601;SDS011;10963;50.934;4.668;2024-03-17T07:26:36;14.17;;;7.93;;
21601;SDS011;10963;50.934;4.668;2024-03-17T07:29:02;13.03;;;8.00;;
21601;SDS011;10963;50.934;4.668;2024-03-17T07:31:33;12.20;;;7.33;;
21601;SDS011;10963;50.934;4.668;2024-03-17T07:33:59;17.07;;;8.17;;
21601;SDS011;10963;50.934;4.668;2024-03-17T07:36:25;13.10;;;7.80;;
21601;SDS011;10963;50.934;4.668;2024-03-17T07:38:50;11.97;;;7.30;;
21601;SDS011;10963;50.934;4.668;2024-03-17T07:41:17;11.80;;;6.80;;
21601;SDS011;10963;50.934;4.668;2024-03-17T07:43:44;12.53;;;6.73;;
21601;SDS011;10963;50.934;4.668;2024-03-17T07:46:11;14.07;;;7.70;;
21601;SDS011;10963;50.934;4.668;2024-03-17T07:48:40;11.40;;;6.60;;
21601;SDS011;10963;50.934;4.668;2024-03-17T07:51:07;11.67;;;6.70;;
21601;SDS011;10963;50.934;4.668;2024-03-17T07:53:38;12.03;;;6.80;;
21601;SDS011;10963;50.934;4.668;2024-03-17T07:56:07;10.90;;;6.10;;
21601;SDS011;10963;50.934;4.668;2024-03-17T07:58:36;10.30;;;6.83;;
21601;SDS011;10963;50.934;4.668;2024-03-17T08:01:05;12.27;;;6.33;;
21601;SDS011;10963;50.934;4.668;2024-03-17T08:03:33;11.03;;;6.27;;
21601;SDS011;10963;50.934;4.668;2024-03-17T08:06:03;13.47;;;5.60;;
21601;SDS011;10963;50.934;4.668;2024-03-17T08:08:30;10.27;;;5.33;;
21601;SDS011;10963;50.934;4.668;2024-03-17T08:10:57;10.40;;;5.53;;
21601;SDS011;10963;50.934;4.668;2024-03-17T08:13:23;7.50;;;4.93;;
21601;SDS011;10963;50.934;4.668;2024-03-17T08:15:56;10.10;;;5.77;;
21601;SDS011;10963;50.934;4.668;2024-03-17T08:18:26;10.27;;;6.03;;
21601;SDS011;10963;50.934;4.668;2024-03-17T08:20:57;8.10;;;5.13;;
21601;SDS011;10963;50.934;4.668;2024-03-17T08:23:26;6.83;;;5.50;;
21601;SDS011;10963;50.934;4.668;2024-03-17T08:25:55;7.07;;;5.10;;
21601;SDS011;10963;50.934;4.668;2024-03-17T08:28:22;7.33;;;5.03;;
21601;SDS011;10963;50.934;4.668;2024-03-17T08:30:57;10.80;;;5.47;;
21601;SDS011;10963;50.934;4.668;2024-03-17T08:33:23;9.20;;;4.83;;
21601;SDS011;10963;50.934;4.668;2024-03-17T08:36:00;9.30;;;4.57;;
21601;SDS011;10963;50.934;4.668;2024-03-17T08:38:30;11.00;;;5.17;;
21601;SDS011;10963;50.934;4.668;2024-03-17T08:41:05;6.23;;;4.30;;
21601;SDS011;10963;50.934;4.668;2024-03-17T08:43:35;10.23;;;5.40;;
21601;SDS011;10963;50.934;4.668;2024-03-17T08:46:05;10.07;;;4.40;;
21601;SDS011;10963;50.934;4.668;2024-03-17T08:48:32;11.60;;;5.40;;
21601;SDS011;10963;50.934;4.668;2024-03-17T08:51:03;9.63;;;4.80;;
21601;SDS011;10963;50.934;4.668;2024-03-17T08:53:30;8.73;;;4.87;;
21601;SDS011;10963;50.934;4.668;2024-03-17T08:55:57;7.83;;;5.00;;
21601;SDS011;10963;50.934;4.668;2024-03-17T08:58:23;7.73;;;5.13;;
21601;SDS011;10963;50.934;4.668;2024-03-17T09:00:50;7.13;;;4.57;;
21601;SDS011;10963;50.934;4.668;2024-03-17T09:03:16;7.33;;;4.57;;
21601;SDS011;10963;50.934;4.668;2024-03-17T09:05:43;7.47;;;4.03;;
21601;SDS011;10963;50.934;4.668;2024-03-17T09:08:20;9.67;;;4.70;;
21601;SDS011;10963;50.934;4.668;2024-03-17T09:10:53;9.93;;;4.57;;
21601;SDS011;10963;50.934;4.668;2024-03-17T09:13:24;8.53;;;4.80;;
21601;SDS011;10963;50.934;4.668;2024-03-17T09:15:54;8.23;;;5.00;;
21601;SDS011;10963;50.934;4.668;2024-03-17T09:18:31;10.10;;;5.10;;
21601;SDS011;10963;50.934;4.668;2024-03-17T09:23:34;8.67;;;4.73;;
21601;SDS011;10963;50.934;4.668;2024-03-17T09:28:29;7.00;;;4.03;;
21601;SDS011;10963;50.934;4.668;2024-03-17T09:30:58;8.10;;;4.23;;
21601;SDS011;10963;50.934;4.668;2024-03-17T09:33:28;8.33;;;4.33;;
21601;SDS011;10963;50.934;4.668;2024-03-17T09:35:59;7.03;;;3.87;;
21601;SDS011;10963;50.934;4.668;2024-03-17T09:38:26;10.87;;;3.97;;
21601;SDS011;10963;50.934;4.668;2024-03-17T09:40:55;5.53;;;3.70;;
21601;SDS011;10963;50.934;4.668;2024-03-17T09:43:34;5.97;;;3.27;;
21601;SDS011;10963;50.934;4.668;2024-03-17T09:46:03;6.03;;;3.73;;
21601;SDS011;10963;50.934;4.668;2024-03-17T09:48:30;9.33;;;4.17;;
21601;SDS011;10963;50.934;4.668;2024-03-17T09:50:57;6.70;;;3.23;;
21601;SDS011;10963;50.934;4.668;2024-03-17T09:53:34;7.10;;;3.70;;
21601;SDS011;10963;50.934;4.668;2024-03-17T09:56:05;4.13;;;3.00;;
21601;SDS011;10963;50.934;4.668;2024-03-17T09:58:35;6.33;;;3.70;;
21601;SDS011;10963;50.934;4.668;2024-03-17T10:01:03;4.63;;;3.30;;
21601;SDS011;10963;50.934;4.668;2024-03-17T10:03:47;6.90;;;3.20;;
21601;SDS011;10963;50.934;4.668;2024-03-17T10:06:28;5.67;;;3.30;;
21601;SDS011;10963;50.934;4.668;2024-03-17T10:08:55;5.77;;;3.47;;
21601;SDS011;10963;50.934;4.668;2024-03-17T10:11:32;10.47;;;3.77;;
21601;SDS011;10963;50.934;4.668;2024-03-17T10:14:07;9.07;;;3.77;;
21601;SDS011;10963;50.934;4.668;2024-03-17T10:16:36;8.17;;;2.80;;
21601;SDS011;10963;50.934;4.668;2024-03-17T10:21:46;4.33;;;3.40;;
21601;SDS011;10963;50.934;4.668;2024-03-17T10:24:14;7.13;;;3.10;;
21601;SDS011;10963;50.934;4.668;2024-03-17T10:34:29;6.53;;;3.40;;
21601;SDS011;10963;50.934;4.668;2024-03-17T10:37:13;6.47;;;3.30;;
21601;SDS011;10963;50.934;4.668;2024-03-17T10:39:40;9.03;;;3.33;;
21601;SDS011;10963;50.934;4.668;2024-03-17T10:42:07;4.87;;;3.00;;
21601;SDS011;10963;50.934;4.668;2024-03-17T10:44:36;4.23;;;2.83;;
21601;SDS011;10963;50.934;4.668;2024-03-17T10:47:06;6.27;;;3.00;;
21601;SDS011;10963;50.934;4.668;2024-03-17T10:49:43;6.00;;;2.50;;
21601;SDS011;10963;50.934;4.668;2024-03-17T10:52:16;5.27;;;3.17;;
21601;SDS011;10963;50.934;4.668;2024-03-17T10:54:47;6.17;;;3.00;;
21601;SDS011;10963;50.934;4.668;2024-03-17T11:00:05;4.43;;;3.33;;
21601;SDS011;10963;50.934;4.668;2024-03-17T11:02:37;3.70;;;3.13;;
21601;SDS011;10963;50.934;4.668;2024-03-17T11:05:10;4.70;;;2.73;;
21601;SDS011;10963;50.934;4.668;2024-03-17T11:07:49;9.30;;;5.73;;
21601;SDS011;10963;50.934;4.668;2024-03-17T11:10:18;5.53;;;3.23;;
21601;SDS011;10963;50.934;4.668;2024-03-17T11:12:55;10.47;;;6.53;;
21601;SDS011;10963;50.934;4.668;2024-03-17T11:17:55;6.77;;;4.17;;
21601;SDS011;10963;50.934;4.668;2024-03-17T11:20:55;15.10;;;8.13;;
21601;SDS011;10963;50.934;4.668;2024-03-17T11:23:28;5.73;;;3.03;;
21601;SDS011;10963;50.934;4.668;2024-03-17T11:25:55;5.20;;;3.13;;
21601;SDS011;10963;50.934;4.668;2024-03-17T11:36:55;5.23;;;3.73;;
21601;SDS011;10963;50.934;4.668;2024-03-17T11:39:45;5.23;;;2.77;;
21601;SDS011;10963;50.934;4.668;2024-03-17T11:42:24;3.80;;;2.50;;
21601;SDS011;10963;50.934;4.668;2024-03-17T11:45:04;7.27;;;3.23;;
21601;SDS011;10963;50.934;4.668;2024-03-17T11:47:33;26.73;;;13.80;;
21601;SDS011;10963;50.934;4.668;2024-03-17T11:50:04;18.80;;;12.40;;
21601;SDS011;10963;50.934;4.668;2024-03-17T11:52:38;6.43;;;2.77;;
21601;SDS011;10963;50.934;4.668;2024-03-17T11:55:14;4.77;;;2.00;;
21601;SDS011;10963;50.934;4.668;2024-03-17T11:57:41;5.23;;;2.50;;
21601;SDS011;10963;50.934;4.668;2024-03-17T12:00:20;4.43;;;2.23;;
21601;SDS011;10963;50.934;4.668;2024-03-17T12:02:48;5.27;;;2.13;;
21601;SDS011;10963;50.934;4.668;2024-03-17T12:05:14;6.30;;;2.17;;
21601;SDS011;10963;50.934;4.668;2024-03-17T12:07:45;7.70;;;2.50;;
21601;SDS011;10963;50.934;4.668;2024-03-17T12:10:11;3.03;;;1.57;;
21601;SDS011;10963;50.934;4.668;2024-03-17T12:12:41;4.83;;;1.80;;
21601;SDS011;10963;50.934;4.668;2024-03-17T12:15:18;4.53;;;1.90;;
21601;SDS011;10963;50.934;4.668;2024-03-17T12:17:45;3.43;;;1.80;;
21601;SDS011;10963;50.934;4.668;2024-03-17T12:20:20;4.07;;;1.70;;
21601;SDS011;10963;50.934;4.668;2024-03-17T12:22:46;5.97;;;4.67;;
21601;SDS011;10963;50.934;4.668;2024-03-17T12:25:19;4.50;;;3.83;;
21601;SDS011;10963;50.934;4.668;2024-03-17T12:27:50;3.83;;;1.40;;
21601;SDS011;10963;50.934;4.668;2024-03-17T12:30:18;2.50;;;1.87;;
21601;SDS011;10963;50.934;4.668;2024-03-17T12:32:46;4.67;;;1.83;;
21601;SDS011;10963;50.934;4.668;2024-03-17T12:35:15;13.07;;;2.23;;
21601;SDS011;10963;50.934;4.668;2024-03-17T12:37:43;3.13;;;1.73;;
21601;SDS011;10963;50.934;4.668;2024-03-17T12:40:17;5.50;;;2.87;;
21601;SDS011;10963;50.934;4.668;2024-03-17T12:42:47;3.13;;;1.60;;
21601;SDS011;10963;50.934;4.668;2024-03-17T12:45:18;5.07;;;1.70;;
21601;SDS011;10963;50.934;4.668;2024-03-17T12:47:46;6.17;;;2.10;;
21601;SDS011;10963;50.934;4.668;2024-03-17T12:50:18;6.03;;;1.83;;
21601;SDS011;10963;50.934;4.668;2024-03-17T12:52:54;3.70;;;1.63;;
21601;SDS011;10963;50.934;4.668;2024-03-17T12:55:20;4.07;;;1.83;;
21601;SDS011;10963;50.934;4.668;2024-03-17T12:58:06;2.40;;;1.70;;
21601;SDS011;10963;50.934;4.668;2024-03-17T13:00:58;3.07;;;1.60;;
21601;SDS011;10963;50.934;4.668;2024-03-17T13:03:33;5.37;;;1.80;;
21601;SDS011;10963;50.934;4.668;2024-03-17T13:06:00;5.10;;;2.03;;
21601;SDS011;10963;50.934;4.668;2024-03-17T13:08:27;4.27;;;1.90;;
21601;SDS011;10963;50.934;4.668;2024-03-17T13:10:53;3.23;;;1.77;;
21601;SDS011;10963;50.934;4.668;2024-03-17T13:13:20;5.03;;;1.93;;
21601;SDS011;10963;50.934;4.668;2024-03-17T13:15:46;3.67;;;2.07;;
21601;SDS011;10963;50.934;4.668;2024-03-17T13:18:20;4.07;;;2.17;;
21601;SDS011;10963;50.934;4.668;2024-03-17T13:20:47;5.37;;;2.63;;
21601;SDS011;10963;50.934;4.668;2024-03-17T13:23:18;6.87;;;2.20;;
21601;SDS011;10963;50.934;4.668;2024-03-17T13:25:44;4.73;;;2.23;;
21601;SDS011;10963;50.934;4.668;2024-03-17T13:28:10;4.43;;;2.20;;
21601;SDS011;10963;50.934;4.668;2024-03-17T13:30:36;3.33;;;2.13;;
21601;SDS011;10963;50.934;4.668;2024-03-17T13:33:02;4.00;;;2.30;;
21601;SDS011;10963;50.934;4.668;2024-03-17T13:35:34;5.07;;;2.37;;
21601;SDS011;10963;50.934;4.668;2024-03-17T13:38:04;4.00;;;2.20;;
21601;SDS011;10963;50.934;4.668;2024-03-17T13:40:32;4.80;;;2.17;;
21601;SDS011;10963;50.934;4.668;2024-03-17T13:43:03;3.50;;;2.40;;
21601;SDS011;10963;50.934;4.668;2024-03-17T13:45:40;4.07;;;2.10;;
21601;SDS011;10963;50.934;4.668;2024-03-17T13:48:08;5.47;;;2.13;;
21601;SDS011;10963;50.934;4.668;2024-03-17T13:50:37;4.17;;;2.07;;
21601;SDS011;10963;50.934;4.668;2024-03-17T13:53:14;6.23;;;2.10;;
21601;SDS011;10963;50.934;4.668;2024-03-17T13:55:40;3.07;;;2.20;;
21601;SDS011;10963;50.934;4.668;2024-03-17T13:58:08;4.00;;;1.90;;
21601;SDS011;10963;50.934;4.668;2024-03-17T14:00:33;4.60;;;2.07;;
21601;SDS011;10963;50.934;4.668;2024-03-17T14:03:04;5.60;;;1.80;;
21601;SDS011;10963;50.934;4.668;2024-03-17T14:05:31;3.97;;;2.20;;
21601;SDS011;10963;50.934;4.668;2024-03-17T14:08:02;5.80;;;3.30;;
21601;SDS011;10963;50.934;4.668;2024-03-17T14:10:29;4.00;;;1.90;;
21601;SDS011;10963;50.934;4.668;2024-03-17T14:12:55;12.73;;;4.70;;
21601;SDS011;10963;50.934;4.668;2024-03-17T14:15:22;2.63;;;1.87;;
21601;SDS011;10963;50.934;4.668;2024-03-17T14:17:50;10.43;;;4.33;;
21601;SDS011;10963;50.934;4.668;2024-03-17T14:20:18;20.97;;;10.63;;
21601;SDS011;10963;50.934;4.668;2024-03-17T14:22:45;9.53;;;4.70;;
21601;SDS011;10963;50.934;4.668;2024-03-17T14:25:18;13.87;;;5.40;;
21601;SDS011;10963;50.934;4.668;2024-03-17T14:27:44;7.27;;;2.83;;
21601;SDS011;10963;50.934;4.668;2024-03-17T14:30:15;9.17;;;5.43;;
21601;SDS011;10963;50.934;4.668;2024-03-17T14:32:45;6.97;;;2.53;;
21601;SDS011;10963;50.934;4.668;2024-03-17T14:35:15;8.57;;;6.07;;
21601;SDS011;10963;50.934;4.668;2024-03-17T14:37:50;5.30;;;2.90;;
21601;SDS011;10963;50.934;4.668;2024-03-17T14:40:16;6.97;;;2.07;;
21601;SDS011;10963;50.934;4.668;2024-03-17T14:42:46;10.50;;;3.53;;
21601;SDS011;10963;50.934;4.668;2024-03-17T14:45:13;6.60;;;3.50;;
21601;SDS011;10963;50.934;4.668;2024-03-17T14:47:41;7.00;;;3.60;;
21601;SDS011;10963;50.934;4.668;2024-03-17T14:50:10;7.57;;;3.57;;
21601;SDS011;10963;50.934;4.668;2024-03-17T14:52:37;2.33;;;2.03;;
21601;SDS011;10963;50.934;4.668;2024-03-17T14:55:03;5.40;;;2.43;;
21601;SDS011;10963;50.934;4.668;2024-03-17T14:57:30;3.93;;;1.60;;
21601;SDS011;10963;50.934;4.668;2024-03-17T14:59:56;4.47;;;2.07;;
21601;SDS011;10963;50.934;4.668;2024-03-17T15:02:21;4.60;;;1.90;;
21601;SDS011;10963;50.934;4.668;2024-03-17T15:04:52;6.10;;;2.70;;
21601;SDS011;10963;50.934;4.668;2024-03-17T15:07:20;8.27;;;4.27;;
21601;SDS011;10963;50.934;4.668;2024-03-17T15:09:48;2.73;;;1.77;;
21601;SDS011;10963;50.934;4.668;2024-03-17T15:12:14;3.73;;;1.60;;
21601;SDS011;10963;50.934;4.668;2024-03-17T15:14:42;3.50;;;1.80;;
21601;SDS011;10963;50.934;4.668;2024-03-17T15:17:13;2.70;;;1.77;;
21601;SDS011;10963;50.934;4.668;2024-03-17T15:19:40;7.53;;;1.77;;